Time,TemperatureF,DewpointF,PressureIn,WindDirection,WindDirectionDegrees,WindSpeedMPH,WindSpeedGustMPH,Humidity,HourlyPrecipIn,Conditions,Clouds,dailyrainin,SoftwareType,DateUTC
2013-04-19 00:01:00,65.6,58.6,30.01,WSW,237,0.0,0.0,78,0.00,,,0.00,WUHU216DAVISVP2,2013-04-19 04:01:00,
2013-04-19 00:06:00,65.8,59.2,30.01,East,99,0.0,4.0,79,0.00,,,0.00,WUHU216DAVISVP2,2013-04-19 04:06:00,
2013-04-19 00:11:00,65.6,59.0,30.01,East,99,0.0,2.0,79,0.00,,,0.00,WUHU216DAVISVP2,2013-04-19 04:11:00,
2013-04-19 00:16:00,65.6,59.0,30.01,East,99,0.0,0.0,79,0.00,,,0.00,WUHU216DAVISVP2,2013-04-19 04:16:00,
2013-04-19 00:21:00,65.5,58.9,30.01,East,99,0.0,0.0,79,0.00,,,0.00,WUHU216DAVISVP2,2013-04-19 04:21:00,
2013-04-19 00:26:00,65.3,59.0,30.01,East,93,0.0,0.0,80,0.00,,,0.00,WUHU216DAVISVP2,2013-04-19 04:26:00,
2013-04-19 00:31:00,65.3,59.0,30.00,East,93,0.0,0.0,80,0.00,,,0.00,WUHU216DAVISVP2,2013-04-19 04:31:00,
2013-04-19 00:36:00,65.2,58.9,30.00,East,93,0.0,0.0,80,0.00,,,0.00,WUHU216DAVISVP2,2013-04-19 04:36:00,
2013-04-19 00:41:00,65.3,59.4,30.00,East,93,0.0,0.0,81,0.00,,,0.00,WUHU216DAVISVP2,2013-04-19 04:41:00,
2013-04-19 00:46:00,65.3,59.4,29.99,East,93,0.0,0.0,81,0.00,,,0.00,WUHU216DAVISVP2,2013-04-19 04:46:00,
2013-04-19 00:51:00,65.2,59.3,29.99,East,93,0.0,0.0,81,0.00,,,0.00,WUHU216DAVISVP2,2013-04-19 04:51:00,
2013-04-19 00:56:00,65.2,59.3,29.99,East,96,0.0,1.0,81,0.00,,,0.00,WUHU216DAVISVP2,2013-04-19 04:56:00,
2013-04-19 01:01:00,65.2,59.3,29.99,East,96,0.0,1.0,81,0.00,,,0.00,WUHU216DAVISVP2,2013-04-19 05:01:00,
2013-04-19 01:06:00,65.3,59.7,29.99,East,96,0.0,0.0,82,0.00,,,0.00,WUHU216DAVISVP2,2013-04-19 05:06:00,
2013-04-19 01:11:00,65.5,59.9,29.99,East,96,0.0,0.0,82,0.00,,,0.00,WUHU216DAVISVP2,2013-04-19 05:11:00,
2013-04-19 01:16:00,65.5,59.9,29.98,East,96,0.0,0.0,82,0.00,,,0.00,WUHU216DAVISVP2,2013-04-19 05:16:00,
2013-04-19 01:21:00,65.6,60.0,29.98,East,96,0.0,0.0,82,0.00,,,0.00,WUHU216DAVISVP2,2013-04-19 05:21:00,
2013-04-19 01:26:00,65.8,60.2,29.98,East,96,0.0,0.0,82,0.00,,,0.00,WUHU216DAVISVP2,2013-04-19 05:26:00,
2013-04-19 01:31:00,65.8,60.5,29.97,East,96,0.0,0.0,83,0.00,,,0.00,WUHU216DAVISVP2,2013-04-19 05:31:00,
2013-04-19 01:36:00,65.8,60.5,29.97,East,96,0.0,0.0,83,0.00,,,0.00,WUHU216DAVISVP2,2013-04-19 05:36:00,
2013-04-19 01:41:00,65.8,60.2,29.97,East,96,0.0,0.0,82,0.00,,,0.00,WUHU216DAVISVP2,2013-04-19 05:41:00,
2013-04-19 01:46:00,65.8,60.5,29.96,East,96,0.0,4.0,83,0.00,,,0.00,WUHU216DAVISVP2,2013-04-19 05:46:00,
2013-04-19 01:51:00,66.0,60.7,29.96,East,96,0.0,4.0,83,0.00,,,0.00,WUHU216DAVISVP2,2013-04-19 05:51:00,
2013-04-19 01:56:00,66.0,60.7,29.96,East,96,0.0,0.0,83,0.00,,,0.00,WUHU216DAVISVP2,2013-04-19 05:56:00,
2013-04-19 02:01:00,66.0,60.7,29.94,East,96,0.0,0.0,83,0.00,,,0.00,WUHU216DAVISVP2,2013-04-19 06:01:00,
2013-04-19 02:06:00,66.0,60.7,29.94,East,96,0.0,0.0,83,0.00,,,0.00,WUHU216DAVISVP2,2013-04-19 06:06:00,
2013-04-19 02:11:00,66.0,60.7,29.94,East,96,0.0,0.0,83,0.00,,,0.00,WUHU216DAVISVP2,2013-04-19 06:11:00,
2013-04-19 02:16:00,65.8,60.5,29.94,East,96,0.0,0.0,83,0.00,,,0.00,WUHU216DAVISVP2,2013-04-19 06:16:00,
2013-04-19 02:21:00,66.0,60.7,29.94,ESE,110,0.0,1.0,83,0.00,,,0.00,WUHU216DAVISVP2,2013-04-19 06:21:00,
2013-04-19 02:26:00,66.0,60.7,29.94,ESE,112,0.0,1.0,83,0.00,,,0.00,WUHU216DAVISVP2,2013-04-19 06:26:00,
2013-04-19 02:31:00,66.1,60.8,29.93,ESE,112,0.0,1.0,83,0.00,,,0.00,WUHU216DAVISVP2,2013-04-19 06:31:00,
2013-04-19 02:36:00,66.4,61.4,29.93,NNE,18,0.0,4.0,84,0.00,,,0.00,WUHU216DAVISVP2,2013-04-19 06:36:00,
2013-04-19 02:41:00,66.6,61.6,29.93,SSW,212,0.0,4.0,84,0.00,,,0.00,WUHU216DAVISVP2,2013-04-19 06:41:00,
2013-04-19 02:46:00,66.9,61.9,29.93,SW,224,0.0,6.0,84,0.00,,,0.00,WUHU216DAVISVP2,2013-04-19 06:46:00,
2013-04-19 02:51:00,67.1,62.1,29.93,SW,215,0.0,6.0,84,0.00,,,0.00,WUHU216DAVISVP2,2013-04-19 06:51:00,
2013-04-19 02:56:00,67.3,62.3,29.93,NE,55,0.0,2.0,84,0.00,,,0.00,WUHU216DAVISVP2,2013-04-19 06:56:00,
2013-04-19 03:01:00,67.4,62.8,29.92,NE,48,0.0,4.0,85,0.00,,,0.00,WUHU216DAVISVP2,2013-04-19 07:01:00,
2013-04-19 03:06:00,67.4,62.4,29.92,NE,48,0.0,4.0,84,0.00,,,0.00,WUHU216DAVISVP2,2013-04-19 07:06:00,
2013-04-19 03:11:00,67.4,62.8,29.92,NE,48,0.0,1.0,85,0.00,,,0.00,WUHU216DAVISVP2,2013-04-19 07:11:00,
2013-04-19 03:16:00,67.4,62.4,29.91,SSW,209,0.0,7.0,84,0.00,,,0.00,WUHU216DAVISVP2,2013-04-19 07:16:00,
2013-04-19 03:21:00,67.6,63.0,29.91,ESE,102,1.0,7.0,85,0.00,,,0.00,WUHU216DAVISVP2,2013-04-19 07:21:00,
2013-04-19 03:26:00,67.6,62.9,29.91,South,179,0.0,4.0,85,0.00,,,0.00,WUHU216DAVISVP2,2013-04-19 07:26:00,
2013-04-19 03:31:00,67.6,62.9,29.91,South,174,0.0,4.0,85,0.00,,,0.00,WUHU216DAVISVP2,2013-04-19 07:31:00,
2013-04-19 03:36:00,67.6,62.9,29.91,ESE,120,0.0,2.0,85,0.00,,,0.00,WUHU216DAVISVP2,2013-04-19 07:36:00,
2013-04-19 03:41:00,67.6,62.9,29.91,SE,144,0.0,6.0,85,0.00,,,0.00,WUHU216DAVISVP2,2013-04-19 07:41:00,
2013-04-19 03:46:00,67.6,62.9,29.91,SE,144,0.0,6.0,85,0.00,,,0.00,WUHU216DAVISVP2,2013-04-19 07:46:00,
2013-04-19 03:51:00,67.4,62.7,29.91,SE,144,0.0,0.0,85,0.00,,,0.00,WUHU216DAVISVP2,2013-04-19 07:51:00,
2013-04-19 03:56:00,67.4,62.7,29.91,SE,144,0.0,0.0,85,0.00,,,0.00,WUHU216DAVISVP2,2013-04-19 07:56:00,
2013-04-19 04:01:00,67.6,63.0,29.90,SE,145,0.0,1.0,85,0.00,,,0.00,WUHU216DAVISVP2,2013-04-19 08:01:00,
2013-04-19 04:06:00,67.6,62.9,29.90,SE,145,0.0,1.0,85,0.00,,,0.00,WUHU216DAVISVP2,2013-04-19 08:06:00,
2013-04-19 04:11:00,67.6,63.0,29.90,SE,145,0.0,1.0,85,0.00,,,0.00,WUHU216DAVISVP2,2013-04-19 08:11:00,
2013-04-19 04:16:00,67.6,63.0,29.89,South,185,0.0,4.0,85,0.00,,,0.00,WUHU216DAVISVP2,2013-04-19 08:16:00,
2013-04-19 04:21:00,67.8,63.1,29.89,South,186,0.0,4.0,85,0.00,,,0.01,WUHU216DAVISVP2,2013-04-19 08:21:00,
2013-04-19 04:26:00,67.9,63.6,29.89,South,186,0.0,0.0,86,0.01,,,0.01,WUHU216DAVISVP2,2013-04-19 08:26:00,
2013-04-19 04:31:00,67.8,63.5,29.89,South,186,0.0,0.0,86,0.01,,,0.01,WUHU216DAVISVP2,2013-04-19 08:31:00,
2013-04-19 04:36:00,67.9,63.6,29.89,South,186,0.0,0.0,86,0.01,,,0.01,WUHU216DAVISVP2,2013-04-19 08:36:00,
2013-04-19 04:41:00,67.8,63.5,29.89,South,186,0.0,0.0,86,0.01,,,0.01,WUHU216DAVISVP2,2013-04-19 08:41:00,
2013-04-19 04:46:00,67.8,63.5,29.89,South,186,0.0,0.0,86,0.01,,,0.01,WUHU216DAVISVP2,2013-04-19 08:46:00,
2013-04-19 04:51:00,67.8,63.5,29.89,South,186,0.0,1.0,86,0.01,,,0.01,WUHU216DAVISVP2,2013-04-19 08:51:00,
2013-04-19 04:56:00,67.8,63.8,29.89,South,186,0.0,1.0,87,0.01,,,0.01,WUHU216DAVISVP2,2013-04-19 08:56:00,
2013-04-19 05:01:00,67.8,63.8,29.89,South,186,0.0,0.0,87,0.01,,,0.01,WUHU216DAVISVP2,2013-04-19 09:01:00,
2013-04-19 05:06:00,67.8,63.8,29.89,South,184,0.0,0.0,87,0.01,,,0.01,WUHU216DAVISVP2,2013-04-19 09:06:00,
2013-04-19 05:11:00,67.8,63.8,29.89,South,184,0.0,0.0,87,0.01,,,0.01,WUHU216DAVISVP2,2013-04-19 09:11:00,
2013-04-19 05:16:00,67.8,63.8,29.88,South,184,0.0,0.0,87,0.01,,,0.01,WUHU216DAVISVP2,2013-04-19 09:16:00,
2013-04-19 05:21:00,67.8,63.8,29.88,East,95,0.0,4.0,87,0.00,,,0.01,WUHU216DAVISVP2,2013-04-19 09:21:00,
2013-04-19 05:26:00,67.9,63.9,29.88,East,95,0.0,4.0,87,0.00,,,0.01,WUHU216DAVISVP2,2013-04-19 09:26:00,
2013-04-19 05:31:00,68.1,64.4,29.88,SSE,152,0.0,1.0,88,0.00,,,0.01,WUHU216DAVISVP2,2013-04-19 09:31:00,
2013-04-19 05:36:00,68.1,64.4,29.88,SSE,152,0.0,1.0,88,0.00,,,0.01,WUHU216DAVISVP2,2013-04-19 09:36:00,
2013-04-19 05:41:00,68.1,64.4,29.88,SSE,152,0.0,0.0,88,0.01,,,0.02,WUHU216DAVISVP2,2013-04-19 09:41:00,
2013-04-19 05:46:00,68.3,64.6,29.88,SSE,152,0.0,0.0,88,0.01,,,0.02,WUHU216DAVISVP2,2013-04-19 09:46:00,
2013-04-19 05:51:00,68.3,64.6,29.88,SSE,152,0.0,0.0,88,0.01,,,0.02,WUHU216DAVISVP2,2013-04-19 09:51:00,
2013-04-19 05:56:00,68.3,64.6,29.88,SSE,152,0.0,1.0,88,0.01,,,0.02,WUHU216DAVISVP2,2013-04-19 09:56:00,
2013-04-19 06:01:00,68.4,64.7,29.88,East,100,1.0,4.0,88,0.01,,,0.02,WUHU216DAVISVP2,2013-04-19 10:01:00,
2013-04-19 06:06:00,68.4,64.7,29.88,East,100,0.0,4.0,88,0.01,,,0.02,WUHU216DAVISVP2,2013-04-19 10:06:00,
2013-04-19 06:11:00,68.4,64.7,29.88,East,100,0.0,1.0,88,0.01,,,0.02,WUHU216DAVISVP2,2013-04-19 10:11:00,
2013-04-19 06:16:00,68.4,64.7,29.88,ESE,107,0.0,0.0,88,0.01,,,0.02,WUHU216DAVISVP2,2013-04-19 10:16:00,
2013-04-19 06:21:00,68.6,64.9,29.88,ESE,106,0.0,1.0,88,0.01,,,0.02,WUHU216DAVISVP2,2013-04-19 10:21:00,
2013-04-19 06:26:00,68.6,64.9,29.88,ESE,106,0.0,1.0,88,0.01,,,0.02,WUHU216DAVISVP2,2013-04-19 10:26:00,
2013-04-19 06:31:00,68.6,64.9,29.88,ESE,106,0.0,0.0,88,0.01,,,0.02,WUHU216DAVISVP2,2013-04-19 10:31:00,
2013-04-19 06:36:00,68.6,64.9,29.88,ESE,106,0.0,0.0,88,0.01,,,0.02,WUHU216DAVISVP2,2013-04-19 10:36:00,
2013-04-19 06:41:00,68.6,64.9,29.88,ESE,106,0.0,0.0,88,0.00,,,0.02,WUHU216DAVISVP2,2013-04-19 10:41:00,
2013-04-19 06:46:00,68.6,65.2,29.88,ESE,106,0.0,0.0,89,0.00,,,0.02,WUHU216DAVISVP2,2013-04-19 10:46:00,
2013-04-19 06:51:00,68.6,65.2,29.88,ESE,106,0.0,0.0,89,0.00,,,0.02,WUHU216DAVISVP2,2013-04-19 10:51:00,
2013-04-19 06:56:00,68.6,65.2,29.88,ESE,106,0.0,0.0,89,0.00,,,0.02,WUHU216DAVISVP2,2013-04-19 10:56:00,
2013-04-19 07:01:00,68.8,65.4,29.87,ESE,106,0.0,0.0,89,0.00,,,0.02,WUHU216DAVISVP2,2013-04-19 11:01:00,
2013-04-19 07:06:00,68.8,65.4,29.87,South,176,0.0,4.0,89,0.00,,,0.02,WUHU216DAVISVP2,2013-04-19 11:06:00,
2013-04-19 07:11:00,68.9,65.5,29.87,South,176,0.0,4.0,89,0.00,,,0.02,WUHU216DAVISVP2,2013-04-19 11:11:00,
2013-04-19 07:16:00,69.3,65.9,29.88,South,176,0.0,0.0,89,0.00,,,0.02,WUHU216DAVISVP2,2013-04-19 11:16:00,
2013-04-19 07:21:00,69.4,66.0,29.88,South,176,0.0,0.0,89,0.00,,,0.02,WUHU216DAVISVP2,2013-04-19 11:21:00,
2013-04-19 07:26:00,69.3,65.9,29.88,SSE,158,0.0,4.0,89,0.00,,,0.02,WUHU216DAVISVP2,2013-04-19 11:26:00,
2013-04-19 07:31:00,69.6,66.2,29.88,SSE,158,0.0,4.0,89,0.00,,,0.02,WUHU216DAVISVP2,2013-04-19 11:31:00,
2013-04-19 07:36:00,69.3,65.9,29.88,South,176,0.0,2.0,89,0.00,,,0.02,WUHU216DAVISVP2,2013-04-19 11:36:00,
2013-04-19 07:41:00,69.6,66.2,29.88,SSE,152,0.0,6.0,89,0.00,,,0.02,WUHU216DAVISVP2,2013-04-19 11:41:00,
2013-04-19 07:46:00,69.4,66.0,29.88,SSE,154,1.0,6.0,89,0.00,,,0.02,WUHU216DAVISVP2,2013-04-19 11:46:00,
2013-04-19 07:51:00,69.4,66.0,29.88,East,83,0.0,2.0,89,0.00,,,0.02,WUHU216DAVISVP2,2013-04-19 11:51:00,
2013-04-19 07:56:00,69.6,66.2,29.88,ENE,72,1.0,6.0,89,0.00,,,0.02,WUHU216DAVISVP2,2013-04-19 11:56:00,
2013-04-19 08:01:00,69.8,66.4,29.88,ESE,106,0.0,6.0,89,0.00,,,0.02,WUHU216DAVISVP2,2013-04-19 12:01:00,
2013-04-19 08:06:00,70.3,67.2,29.88,ESE,104,0.0,1.0,90,0.00,,,0.02,WUHU216DAVISVP2,2013-04-19 12:06:00,
2013-04-19 08:11:00,70.4,67.0,29.88,ENE,72,0.0,1.0,89,0.00,,,0.02,WUHU216DAVISVP2,2013-04-19 12:11:00,
2013-04-19 08:16:00,70.4,67.0,29.89,ENE,72,0.0,1.0,89,0.00,,,0.02,WUHU216DAVISVP2,2013-04-19 12:16:00,
2013-04-19 08:21:00,70.6,67.2,29.89,ENE,72,0.0,0.0,89,0.00,,,0.02,WUHU216DAVISVP2,2013-04-19 12:21:00,
2013-04-19 08:26:00,70.6,67.2,29.89,SE,134,0.0,4.0,89,0.00,,,0.02,WUHU216DAVISVP2,2013-04-19 12:26:00,
2013-04-19 08:31:00,70.6,67.2,29.89,SE,134,0.0,4.0,89,0.00,,,0.02,WUHU216DAVISVP2,2013-04-19 12:31:00,
2013-04-19 08:36:00,70.4,67.0,29.89,NNW,336,0.0,4.0,89,0.00,,,0.02,WUHU216DAVISVP2,2013-04-19 12:36:00,
2013-04-19 08:41:00,70.4,67.0,29.89,South,169,0.0,6.0,89,0.00,,,0.02,WUHU216DAVISVP2,2013-04-19 12:41:00,
2013-04-19 08:46:00,70.4,67.0,29.88,NE,45,0.0,6.0,89,0.00,,,0.02,WUHU216DAVISVP2,2013-04-19 12:46:00,
2013-04-19 08:51:00,70.4,67.0,29.88,SE,140,0.0,4.0,89,0.00,,,0.02,WUHU216DAVISVP2,2013-04-19 12:51:00,
2013-04-19 08:56:00,70.6,67.2,29.88,NNE,31,0.0,4.0,89,0.00,,,0.02,WUHU216DAVISVP2,2013-04-19 12:56:00,
2013-04-19 09:01:00,70.4,67.0,29.88,ESE,106,0.0,6.0,89,0.00,,,0.02,WUHU216DAVISVP2,2013-04-19 13:01:00,
2013-04-19 09:06:00,70.4,67.0,29.88,SSE,148,0.0,7.0,89,0.00,,,0.02,WUHU216DAVISVP2,2013-04-19 13:06:00,
2013-04-19 09:12:00,70.4,67.0,29.88,ENE,62,0.0,7.0,89,0.00,,,0.02,WUHU216DAVISVP2,2013-04-19 13:12:00,
2013-04-19 09:17:00,70.8,67.4,29.88,ESE,113,0.0,4.0,89,0.00,,,0.02,WUHU216DAVISVP2,2013-04-19 13:17:00,
2013-04-19 09:22:00,71.1,67.4,29.88,SSW,213,1.0,4.0,88,0.00,,,0.02,WUHU216DAVISVP2,2013-04-19 13:22:00,
2013-04-19 09:27:00,71.3,67.6,29.88,ESE,114,0.0,8.0,88,0.00,,,0.02,WUHU216DAVISVP2,2013-04-19 13:27:00,
2013-04-19 09:32:00,71.1,67.0,29.88,ESE,109,0.0,8.0,87,0.00,,,0.02,WUHU216DAVISVP2,2013-04-19 13:32:00,
2013-04-19 09:37:00,71.3,67.2,29.88,SSW,205,0.0,7.0,87,0.00,,,0.02,WUHU216DAVISVP2,2013-04-19 13:37:00,
2013-04-19 09:42:00,71.6,67.5,29.88,ENE,76,0.0,2.0,87,0.00,,,0.02,WUHU216DAVISVP2,2013-04-19 13:42:00,
2013-04-19 09:47:00,71.6,67.2,29.88,SSE,150,1.0,4.0,86,0.00,,,0.02,WUHU216DAVISVP2,2013-04-19 13:47:00,
2013-04-19 09:52:00,71.6,66.9,29.88,East,96,2.0,8.0,85,0.00,,,0.02,WUHU216DAVISVP2,2013-04-19 13:52:00,
2013-04-19 09:57:00,71.6,66.9,29.88,NE,55,0.0,8.0,85,0.00,,,0.02,WUHU216DAVISVP2,2013-04-19 13:57:00,
2013-04-19 10:02:00,71.8,67.1,29.88,East,90,2.0,6.0,85,0.00,,,0.02,WUHU216DAVISVP2,2013-04-19 14:02:00,
2013-04-19 10:07:00,71.6,66.5,29.88,ENE,59,0.0,6.0,84,0.00,,,0.02,WUHU216DAVISVP2,2013-04-19 14:07:00,
2013-04-19 10:12:00,71.6,66.5,29.88,SSW,210,1.0,6.0,84,0.00,,,0.02,WUHU216DAVISVP2,2013-04-19 14:12:00,
2013-04-19 10:17:00,71.8,66.7,29.88,NNW,330,2.0,8.0,84,0.00,,,0.02,WUHU216DAVISVP2,2013-04-19 14:17:00,
2013-04-19 10:22:00,72.1,66.6,29.88,North,0,0.0,8.0,83,0.00,,,0.02,WUHU216DAVISVP2,2013-04-19 14:22:00,
2013-04-19 10:27:00,72.5,67.0,29.88,SW,216,0.0,14.0,83,0.00,,,0.02,WUHU216DAVISVP2,2013-04-19 14:27:00,
2013-04-19 10:32:00,72.7,66.9,29.87,ENE,61,0.0,14.0,82,0.00,,,0.02,WUHU216DAVISVP2,2013-04-19 14:32:00,
2013-04-19 10:37:00,72.8,67.0,29.87,East,90,0.0,8.0,82,0.00,,,0.02,WUHU216DAVISVP2,2013-04-19 14:37:00,
2013-04-19 10:42:00,72.8,67.1,29.87,East,85,1.0,4.0,82,0.00,,,0.02,WUHU216DAVISVP2,2013-04-19 14:42:00,
2013-04-19 10:47:00,72.7,67.0,29.87,NNE,28,0.0,8.0,82,0.00,,,0.02,WUHU216DAVISVP2,2013-04-19 14:47:00,
2013-04-19 10:52:00,72.7,67.0,29.87,ENE,69,0.0,8.0,82,0.00,,,0.02,WUHU216DAVISVP2,2013-04-19 14:52:00,
2013-04-19 10:57:00,72.7,66.6,29.87,ESE,113,1.0,7.0,81,0.00,,,0.02,WUHU216DAVISVP2,2013-04-19 14:57:00,
2013-04-19 11:02:00,73.0,67.2,29.87,North,357,2.0,6.0,82,0.00,,,0.02,WUHU216DAVISVP2,2013-04-19 15:02:00,
2013-04-19 11:07:00,73.5,67.4,29.87,NNE,32,0.0,9.0,81,0.00,,,0.02,WUHU216DAVISVP2,2013-04-19 15:07:00,
2013-04-19 11:12:00,73.7,67.2,29.87,SSW,206,0.0,9.0,80,0.00,,,0.02,WUHU216DAVISVP2,2013-04-19 15:12:00,
2013-04-19 11:17:00,73.9,67.4,29.86,East,93,0.0,6.0,80,0.00,,,0.02,WUHU216DAVISVP2,2013-04-19 15:17:00,
2013-04-19 11:22:00,73.7,67.2,29.86,NNE,13,7.0,7.0,80,0.00,,,0.02,WUHU216DAVISVP2,2013-04-19 15:22:00,
2013-04-19 11:27:00,73.7,67.2,29.86,ENE,71,0.0,7.0,80,0.00,,,0.02,WUHU216DAVISVP2,2013-04-19 15:27:00,
2013-04-19 11:32:00,73.7,67.2,29.86,East,97,0.0,7.0,80,0.00,,,0.02,WUHU216DAVISVP2,2013-04-19 15:32:00,
2013-04-19 11:37:00,73.9,67.1,29.86,East,89,4.0,9.0,79,0.00,,,0.02,WUHU216DAVISVP2,2013-04-19 15:37:00,
2013-04-19 11:42:00,74.4,67.9,29.86,WNW,282,6.0,9.0,80,0.00,,,0.02,WUHU216DAVISVP2,2013-04-19 15:42:00,
2013-04-19 11:47:00,75.3,68.4,29.85,SE,137,1.0,7.0,79,0.00,,,0.02,WUHU216DAVISVP2,2013-04-19 15:47:00,
2013-04-19 11:52:00,75.6,68.0,29.85,ENE,68,0.0,8.0,77,0.00,,,0.02,WUHU216DAVISVP2,2013-04-19 15:52:00,
2013-04-19 11:57:00,75.8,68.2,29.85,NE,35,6.0,8.0,77,0.00,,,0.02,WUHU216DAVISVP2,2013-04-19 15:57:00,
2013-04-19 12:02:00,76.1,68.9,29.84,NNE,31,1.0,7.0,78,0.00,,,0.02,WUHU216DAVISVP2,2013-04-19 16:02:00,
2013-04-19 12:07:00,76.3,68.3,29.84,East,95,0.0,10.0,76,0.00,,,0.02,WUHU216DAVISVP2,2013-04-19 16:07:00,
2013-04-19 12:12:00,77.0,68.9,29.84,West,263,2.0,10.0,76,0.00,,,0.02,WUHU216DAVISVP2,2013-04-19 16:12:00,
2013-04-19 12:17:00,77.6,69.0,29.82,SW,219,0.0,8.0,75,0.00,,,0.02,WUHU216DAVISVP2,2013-04-19 16:17:00,
2013-04-19 12:22:00,77.9,69.5,29.82,SE,145,4.0,8.0,75,0.00,,,0.02,WUHU216DAVISVP2,2013-04-19 16:22:00,
2013-04-19 12:27:00,78.3,69.1,29.82,SE,124,1.0,14.0,73,0.00,,,0.02,WUHU216DAVISVP2,2013-04-19 16:27:00,
2013-04-19 12:32:00,78.1,68.5,29.81,SE,124,1.0,14.0,72,0.00,,,0.02,WUHU216DAVISVP2,2013-04-19 16:32:00,
2013-04-19 12:37:00,77.7,68.0,29.81,SSW,193,6.0,8.0,72,0.00,,,0.02,WUHU216DAVISVP2,2013-04-19 16:37:00,
2013-04-19 12:42:00,77.4,67.7,29.81,ESE,119,0.0,10.0,72,0.00,,,0.02,WUHU216DAVISVP2,2013-04-19 16:42:00,
2013-04-19 12:47:00,77.2,67.5,29.81,NNW,339,6.0,10.0,72,0.00,,,0.02,WUHU216DAVISVP2,2013-04-19 16:47:00,
2013-04-19 12:52:00,77.2,68.1,29.81,SSE,161,0.0,8.0,73,0.00,,,0.02,WUHU216DAVISVP2,2013-04-19 16:52:00,
2013-04-19 12:57:00,77.6,68.4,29.81,SW,223,1.0,8.0,73,0.00,,,0.02,WUHU216DAVISVP2,2013-04-19 16:57:00,
2013-04-19 13:02:00,78.1,68.5,29.80,NE,35,1.0,7.0,72,0.00,,,0.02,WUHU216DAVISVP2,2013-04-19 17:02:00,
2013-04-19 13:07:00,78.6,69.0,29.80,ESE,102,0.0,8.0,72,0.00,,,0.02,WUHU216DAVISVP2,2013-04-19 17:07:00,
2013-04-19 13:12:00,78.6,68.6,29.80,SSW,193,0.0,8.0,71,0.00,,,0.02,WUHU216DAVISVP2,2013-04-19 17:12:00,
2013-04-19 13:17:00,79.4,69.0,29.78,NW,309,2.0,8.0,70,0.00,,,0.02,WUHU216DAVISVP2,2013-04-19 17:17:00,
2013-04-19 13:22:00,79.6,68.8,29.78,SSE,162,0.0,11.0,69,0.00,,,0.02,WUHU216DAVISVP2,2013-04-19 17:22:00,
2013-04-19 13:27:00,79.8,69.4,29.78,East,92,6.0,11.0,70,0.00,,,0.02,WUHU216DAVISVP2,2013-04-19 17:27:00,
2013-04-19 13:32:00,79.9,69.0,29.77,SSW,213,4.0,9.0,69,0.00,,,0.02,WUHU216DAVISVP2,2013-04-19 17:32:00,
2013-04-19 13:37:00,80.1,67.7,29.77,SW,224,2.0,9.0,66,0.00,,,0.02,WUHU216DAVISVP2,2013-04-19 17:37:00,
2013-04-19 13:42:00,80.5,69.0,29.77,East,90,2.0,9.0,68,0.00,,,0.02,WUHU216DAVISVP2,2013-04-19 17:42:00,
2013-04-19 13:47:00,81.2,69.2,29.76,ESE,120,2.0,10.0,67,0.00,,,0.02,WUHU216DAVISVP2,2013-04-19 17:47:00,
2013-04-19 13:52:00,81.2,69.0,29.76,South,179,4.0,10.0,66,0.00,,,0.02,WUHU216DAVISVP2,2013-04-19 17:52:00,
2013-04-19 13:57:00,81.1,68.9,29.76,NNW,337,2.0,9.0,66,0.00,,,0.02,WUHU216DAVISVP2,2013-04-19 17:57:00,
2013-04-19 14:02:00,80.7,68.1,29.75,SE,144,1.0,7.0,65,0.00,,,0.02,WUHU216DAVISVP2,2013-04-19 18:02:00,
2013-04-19 14:07:00,80.1,67.5,29.75,East,85,0.0,13.0,65,0.00,,,0.02,WUHU216DAVISVP2,2013-04-19 18:07:00,
2013-04-19 14:12:00,79.8,67.0,29.75,SE,130,1.0,13.0,65,0.00,,,0.02,WUHU216DAVISVP2,2013-04-19 18:12:00,
2013-04-19 14:17:00,79.4,67.0,29.75,East,96,1.0,8.0,66,0.00,,,0.02,WUHU216DAVISVP2,2013-04-19 18:17:00,
2013-04-19 14:22:00,79.2,67.3,29.75,ENE,61,1.0,7.0,67,0.00,,,0.02,WUHU216DAVISVP2,2013-04-19 18:22:00,
2013-04-19 14:27:00,79.4,67.7,29.75,ENE,58,0.0,8.0,67,0.00,,,0.02,WUHU216DAVISVP2,2013-04-19 18:27:00,
2013-04-19 14:32:00,79.4,68.1,29.75,SW,217,1.0,8.0,68,0.00,,,0.02,WUHU216DAVISVP2,2013-04-19 18:32:00,
2013-04-19 14:37:00,79.6,67.5,29.75,SE,134,0.0,6.0,66,0.00,,,0.02,WUHU216DAVISVP2,2013-04-19 18:37:00,
2013-04-19 14:42:00,79.8,68.1,29.75,SSE,154,1.0,6.0,67,0.00,,,0.02,WUHU216DAVISVP2,2013-04-19 18:42:00,
2013-04-19 14:47:00,80.1,67.5,29.73,South,191,6.0,8.0,65,0.00,,,0.02,WUHU216DAVISVP2,2013-04-19 18:47:00,
2013-04-19 14:52:00,80.3,67.5,29.73,NE,52,0.0,9.0,65,0.00,,,0.02,WUHU216DAVISVP2,2013-04-19 18:52:00,
2013-04-19 14:57:00,80.3,67.9,29.73,WSW,247,0.0,9.0,66,0.00,,,0.02,WUHU216DAVISVP2,2013-04-19 18:57:00,
2013-04-19 15:02:00,80.1,67.3,29.72,NW,322,9.0,9.0,65,0.00,,,0.02,WUHU216DAVISVP2,2013-04-19 19:02:00,
2013-04-19 15:07:00,79.9,67.1,29.72,ESE,121,0.0,10.0,65,0.00,,,0.02,WUHU216DAVISVP2,2013-04-19 19:07:00,
2013-04-19 15:12:00,79.9,67.5,29.72,NW,322,0.0,10.0,66,0.00,,,0.02,WUHU216DAVISVP2,2013-04-19 19:12:00,
2013-04-19 15:17:00,79.9,67.5,29.72,SSW,212,4.0,8.0,66,0.00,,,0.02,WUHU216DAVISVP2,2013-04-19 19:17:00,
2013-04-19 15:22:00,80.3,68.3,29.72,ENE,75,0.0,8.0,67,0.00,,,0.02,WUHU216DAVISVP2,2013-04-19 19:22:00,
2013-04-19 15:27:00,80.5,68.1,29.72,NNW,344,0.0,7.0,66,0.00,,,0.02,WUHU216DAVISVP2,2013-04-19 19:27:00,
2013-04-19 15:32:00,80.5,67.2,29.71,SSE,151,1.0,10.0,64,0.00,,,0.02,WUHU216DAVISVP2,2013-04-19 19:32:00,
2013-04-19 15:37:00,80.7,68.3,29.71,NNW,328,0.0,10.0,66,0.00,,,0.02,WUHU216DAVISVP2,2013-04-19 19:37:00,
2013-04-19 15:42:00,81.2,68.3,29.71,ESE,113,0.0,7.0,65,0.00,,,0.02,WUHU216DAVISVP2,2013-04-19 19:42:00,
2013-04-19 15:47:00,81.6,67.8,29.69,East,86,1.0,7.0,63,0.00,,,0.02,WUHU216DAVISVP2,2013-04-19 19:47:00,
2013-04-19 15:52:00,81.4,67.6,29.69,East,88,7.0,9.0,63,0.00,,,0.02,WUHU216DAVISVP2,2013-04-19 19:52:00,
2013-04-19 15:57:00,81.1,67.3,29.69,ESE,120,0.0,9.0,63,0.00,,,0.02,WUHU216DAVISVP2,2013-04-19 19:57:00,
2013-04-19 16:02:00,81.1,67.3,29.68,ENE,62,0.0,9.0,63,0.00,,,0.02,WUHU216DAVISVP2,2013-04-19 20:02:00,
2013-04-19 16:07:00,81.2,67.4,29.68,East,100,0.0,8.0,63,0.00,,,0.02,WUHU216DAVISVP2,2013-04-19 20:07:00,
2013-04-19 16:12:00,81.2,67.4,29.68,East,80,0.0,7.0,63,0.00,,,0.02,WUHU216DAVISVP2,2013-04-19 20:12:00,
2013-04-19 16:17:00,81.2,67.7,29.68,SE,138,4.0,8.0,63,0.00,,,0.02,WUHU216DAVISVP2,2013-04-19 20:17:00,
2013-04-19 16:22:00,81.2,67.2,29.68,SE,144,0.0,8.0,62,0.00,,,0.02,WUHU216DAVISVP2,2013-04-19 20:22:00,
2013-04-19 16:27:00,81.1,67.6,29.68,ESE,114,0.0,8.0,63,0.00,,,0.02,WUHU216DAVISVP2,2013-04-19 20:27:00,
2013-04-19 16:32:00,81.1,68.0,29.68,SE,141,0.0,8.0,64,0.00,,,0.02,WUHU216DAVISVP2,2013-04-19 20:32:00,
2013-04-19 16:37:00,81.2,68.1,29.68,East,97,0.0,8.0,64,0.00,,,0.02,WUHU216DAVISVP2,2013-04-19 20:37:00,
2013-04-19 16:42:00,81.2,68.1,29.68,ENE,76,2.0,7.0,64,0.00,,,0.02,WUHU216DAVISVP2,2013-04-19 20:42:00,
2013-04-19 16:47:00,81.2,68.1,29.67,ENE,75,1.0,9.0,64,0.00,,,0.02,WUHU216DAVISVP2,2013-04-19 20:47:00,
2013-04-19 16:52:00,81.1,68.0,29.67,East,79,2.0,9.0,64,0.00,,,0.02,WUHU216DAVISVP2,2013-04-19 20:52:00,
2013-04-19 16:57:00,80.9,67.8,29.67,ESE,104,2.0,14.0,64,0.00,,,0.02,WUHU216DAVISVP2,2013-04-19 20:57:00,
2013-04-19 17:02:00,80.9,67.6,29.67,SE,145,4.0,14.0,64,0.00,,,0.02,WUHU216DAVISVP2,2013-04-19 21:02:00,
2013-04-19 17:07:00,80.9,68.0,29.67,SSE,150,0.0,9.0,65,0.00,,,0.02,WUHU216DAVISVP2,2013-04-19 21:07:00,
2013-04-19 17:12:00,80.7,67.6,29.67,ENE,68,0.0,8.0,64,0.00,,,0.02,WUHU216DAVISVP2,2013-04-19 21:12:00,
2013-04-19 17:17:00,80.7,68.1,29.66,ESE,102,1.0,7.0,65,0.00,,,0.02,WUHU216DAVISVP2,2013-04-19 21:17:00,
2013-04-19 17:22:00,80.5,67.4,29.66,East,89,1.0,9.0,64,0.00,,,0.02,WUHU216DAVISVP2,2013-04-19 21:22:00,
2013-04-19 17:27:00,80.3,67.3,29.66,South,186,6.0,9.0,64,0.00,,,0.02,WUHU216DAVISVP2,2013-04-19 21:27:00,
2013-04-19 17:32:00,80.3,67.3,29.66,South,188,4.0,8.0,64,0.00,,,0.02,WUHU216DAVISVP2,2013-04-19 21:32:00,
2013-04-19 17:37:00,79.9,66.9,29.66,ESE,119,0.0,10.0,64,0.00,,,0.02,WUHU216DAVISVP2,2013-04-19 21:37:00,
2013-04-19 17:42:00,79.8,66.8,29.66,NNW,347,7.0,10.0,64,0.00,,,0.02,WUHU216DAVISVP2,2013-04-19 21:42:00,
2013-04-19 17:47:00,79.4,66.4,29.66,ESE,106,0.0,9.0,64,0.00,,,0.02,WUHU216DAVISVP2,2013-04-19 21:47:00,
2013-04-19 17:52:00,79.2,65.8,29.66,South,174,0.0,7.0,63,0.00,,,0.02,WUHU216DAVISVP2,2013-04-19 21:52:00,
2013-04-19 17:57:00,78.8,65.4,29.66,ESE,107,0.0,7.0,63,0.00,,,0.02,WUHU216DAVISVP2,2013-04-19 21:57:00,
2013-04-19 18:02:00,78.8,65.4,29.66,North,350,0.0,7.0,63,0.00,,,0.02,WUHU216DAVISVP2,2013-04-19 22:02:00,
2013-04-19 18:07:00,78.6,65.2,29.66,ESE,110,1.0,4.0,63,0.00,,,0.02,WUHU216DAVISVP2,2013-04-19 22:07:00,
2013-04-19 18:12:00,78.5,65.1,29.66,ESE,123,0.0,6.0,63,0.00,,,0.02,WUHU216DAVISVP2,2013-04-19 22:12:00,
2013-04-19 18:17:00,78.3,65.4,29.66,ENE,71,0.0,7.0,64,0.00,,,0.02,WUHU216DAVISVP2,2013-04-19 22:17:00,
2013-04-19 18:22:00,78.1,64.7,29.66,WNW,302,1.0,7.0,63,0.00,,,0.02,WUHU216DAVISVP2,2013-04-19 22:22:00,
2013-04-19 18:27:00,78.3,64.4,29.66,ESE,104,0.0,8.0,62,0.00,,,0.02,WUHU216DAVISVP2,2013-04-19 22:27:00,
2013-04-19 18:32:00,78.1,64.3,29.68,East,85,0.0,8.0,62,0.00,,,0.02,WUHU216DAVISVP2,2013-04-19 22:32:00,
2013-04-19 18:37:00,78.1,64.3,29.68,East,100,13.0,13.0,62,0.00,,,0.02,WUHU216DAVISVP2,2013-04-19 22:37:00,
2013-04-19 18:42:00,78.1,64.3,29.68,NNW,340,6.0,13.0,62,0.00,,,0.02,WUHU216DAVISVP2,2013-04-19 22:42:00,
2013-04-19 18:47:00,77.0,63.7,29.71,NNW,339,0.0,10.0,63,0.00,,,0.02,WUHU216DAVISVP2,2013-04-19 22:47:00,
2013-04-19 18:52:00,75.4,63.0,29.71,SE,126,1.0,9.0,65,0.00,,,0.02,WUHU216DAVISVP2,2013-04-19 22:52:00,
2013-04-19 18:57:00,74.0,62.6,29.71,WNW,284,0.0,9.0,67,0.00,,,0.02,WUHU216DAVISVP2,2013-04-19 22:57:00,
2013-04-19 19:02:00,71.8,62.5,29.75,East,88,9.0,20.0,72,0.09,,,0.11,WUHU216DAVISVP2,2013-04-19 23:02:00,
2013-04-19 19:07:00,69.1,60.8,29.75,ESE,110,8.0,20.0,75,0.21,,,0.24,WUHU216DAVISVP2,2013-04-19 23:07:00,
2013-04-19 19:12:00,67.8,60.4,29.75,West,277,9.0,10.0,77,0.24,,,0.26,WUHU216DAVISVP2,2013-04-19 23:12:00,
2013-04-19 19:17:00,67.3,60.6,29.75,East,90,0.0,13.0,79,0.26,,,0.28,WUHU216DAVISVP2,2013-04-19 23:17:00,
2013-04-19 19:23:00,67.1,60.8,29.75,ENE,62,0.0,13.0,80,0.28,,,0.30,WUHU216DAVISVP2,2013-04-19 23:23:00,
2013-04-19 19:28:00,67.1,61.5,29.75,ESE,107,0.0,9.0,82,0.29,,,0.31,WUHU216DAVISVP2,2013-04-19 23:28:00,
2013-04-19 19:33:00,67.1,61.5,29.74,SE,134,0.0,9.0,82,0.31,,,0.33,WUHU216DAVISVP2,2013-04-19 23:33:00,
2013-04-19 19:38:00,67.3,62.0,29.74,NE,51,0.0,6.0,83,0.31,,,0.33,WUHU216DAVISVP2,2013-04-19 23:38:00,
2013-04-19 19:43:00,67.3,62.0,29.74,ESE,109,0.0,4.0,83,0.32,,,0.34,WUHU216DAVISVP2,2013-04-19 23:43:00,
2013-04-19 19:48:00,67.4,62.4,29.74,ESE,109,0.0,1.0,84,0.32,,,0.34,WUHU216DAVISVP2,2013-04-19 23:48:00,
2013-04-19 19:54:00,67.4,62.4,29.74,ESE,109,0.0,1.0,84,0.33,,,0.35,WUHU216DAVISVP2,2013-04-19 23:54:00,
2013-04-19 19:59:00,67.6,62.6,29.74,ESE,109,0.0,0.0,84,0.33,,,0.35,WUHU216DAVISVP2,2013-04-19 23:59:00,
2013-04-19 20:04:00,67.6,63.0,29.74,ESE,110,0.0,0.0,85,0.21,,,0.36,WUHU216DAVISVP2,2013-04-20 00:04:00,
2013-04-19 20:09:00,67.6,63.0,29.74,SE,130,0.0,2.0,85,0.12,,,0.37,WUHU216DAVISVP2,2013-04-20 00:09:00,
2013-04-19 20:14:00,67.6,63.0,29.75,North,0,0.0,2.0,85,0.11,,,0.38,WUHU216DAVISVP2,2013-04-20 00:14:00,
2013-04-19 20:19:00,67.6,63.0,29.75,West,270,0.0,1.0,85,0.10,,,0.39,WUHU216DAVISVP2,2013-04-20 00:19:00,
2013-04-19 20:24:00,67.8,63.5,29.75,NW,323,0.0,6.0,86,0.10,,,0.40,WUHU216DAVISVP2,2013-04-20 00:24:00,
2013-04-19 20:29:00,67.9,63.6,29.76,SSE,165,0.0,6.0,86,0.09,,,0.41,WUHU216DAVISVP2,2013-04-20 00:29:00,
2013-04-19 20:34:00,67.9,63.6,29.76,ESE,104,0.0,4.0,86,0.09,,,0.42,WUHU216DAVISVP2,2013-04-20 00:34:00,
2013-04-19 20:39:00,67.9,63.6,29.76,SSW,208,0.0,7.0,86,0.08,,,0.42,WUHU216DAVISVP2,2013-04-20 00:39:00,
2013-04-19 20:44:00,68.1,63.8,29.76,North,7,0.0,10.0,86,0.08,,,0.42,WUHU216DAVISVP2,2013-04-20 00:44:00,
2013-04-19 20:49:00,68.1,64.1,29.76,SE,126,1.0,10.0,87,0.09,,,0.43,WUHU216DAVISVP2,2013-04-20 00:49:00,
2013-04-19 20:54:00,68.1,64.1,29.76,ESE,103,0.0,6.0,87,0.08,,,0.43,WUHU216DAVISVP2,2013-04-20 00:54:00,
2013-04-19 20:59:00,68.3,64.3,29.76,ESE,110,0.0,4.0,87,0.08,,,0.43,WUHU216DAVISVP2,2013-04-20 00:59:00,
2013-04-19 21:04:00,68.1,64.1,29.76,WSW,237,0.0,2.0,87,0.08,,,0.44,WUHU216DAVISVP2,2013-04-20 01:04:00,
2013-04-19 21:09:00,68.1,64.1,29.76,West,280,0.0,7.0,87,0.07,,,0.44,WUHU216DAVISVP2,2013-04-20 01:09:00,
2013-04-19 21:14:00,68.4,64.4,29.76,East,82,0.0,11.0,87,0.06,,,0.44,WUHU216DAVISVP2,2013-04-20 01:14:00,
2013-04-19 21:19:00,68.3,64.3,29.76,SE,127,0.0,11.0,87,0.05,,,0.44,WUHU216DAVISVP2,2013-04-20 01:19:00,
2013-04-19 21:23:00,68.3,64.6,29.76,NW,311,4.0,4.0,88,0.04,,,0.44,WUHU216DAVISVP2,2013-04-20 01:23:00,
2013-04-19 21:28:00,68.3,64.6,29.76,NW,311,0.0,4.0,88,0.03,,,0.44,WUHU216DAVISVP2,2013-04-20 01:28:00,
2013-04-19 21:33:00,68.1,64.4,29.76,WSW,246,0.0,7.0,88,0.02,,,0.44,WUHU216DAVISVP2,2013-04-20 01:33:00,
2013-04-19 21:38:00,68.4,64.7,29.76,WSW,244,0.0,7.0,88,0.03,,,0.45,WUHU216DAVISVP2,2013-04-20 01:38:00,
2013-04-19 21:43:00,68.4,64.7,29.77,East,90,0.0,2.0,88,0.03,,,0.45,WUHU216DAVISVP2,2013-04-20 01:43:00,
2013-04-19 21:48:00,68.4,64.7,29.77,SSE,151,0.0,2.0,88,0.02,,,0.45,WUHU216DAVISVP2,2013-04-20 01:48:00,
2013-04-19 21:53:00,68.3,64.6,29.77,SSE,147,0.0,2.0,88,0.03,,,0.46,WUHU216DAVISVP2,2013-04-20 01:53:00,
2013-04-19 21:58:00,68.1,64.4,29.77,SE,130,0.0,2.0,88,0.03,,,0.46,WUHU216DAVISVP2,2013-04-20 01:58:00,
2013-04-19 22:03:00,68.1,64.4,29.77,WSW,246,6.0,8.0,88,0.02,,,0.46,WUHU216DAVISVP2,2013-04-20 02:03:00,
2013-04-19 22:08:00,67.9,64.2,29.77,West,271,0.0,8.0,88,0.02,,,0.46,WUHU216DAVISVP2,2013-04-20 02:08:00,
2013-04-19 22:13:00,67.9,64.2,29.76,ESE,107,0.0,8.0,88,0.02,,,0.46,WUHU216DAVISVP2,2013-04-20 02:13:00,
2013-04-19 22:18:00,68.3,64.6,29.76,WSW,247,0.0,4.0,88,0.02,,,0.46,WUHU216DAVISVP2,2013-04-20 02:18:00,
2013-04-19 22:23:00,68.1,64.7,29.76,East,79,0.0,6.0,89,0.02,,,0.46,WUHU216DAVISVP2,2013-04-20 02:23:00,
2013-04-19 22:28:00,68.3,64.9,29.75,ESE,116,0.0,6.0,89,0.02,,,0.46,WUHU216DAVISVP2,2013-04-20 02:28:00,
2013-04-19 22:33:00,68.6,65.2,29.75,North,4,0.0,7.0,89,0.03,,,0.47,WUHU216DAVISVP2,2013-04-20 02:33:00,
2013-04-19 22:38:00,68.6,65.2,29.75,NNE,18,0.0,7.0,89,0.02,,,0.47,WUHU216DAVISVP2,2013-04-20 02:38:00,
2013-04-19 22:43:00,68.4,65.0,29.74,NW,305,0.0,7.0,89,0.02,,,0.47,WUHU216DAVISVP2,2013-04-20 02:43:00,
2013-04-19 22:48:00,68.4,65.0,29.74,WNW,301,0.0,7.0,89,0.03,,,0.48,WUHU216DAVISVP2,2013-04-20 02:48:00,
2013-04-19 22:53:00,68.6,65.2,29.74,ENE,64,0.0,2.0,89,0.02,,,0.48,WUHU216DAVISVP2,2013-04-20 02:53:00,
2013-04-19 22:58:00,68.6,65.2,29.74,ESE,121,0.0,6.0,89,0.02,,,0.48,WUHU216DAVISVP2,2013-04-20 02:58:00,
2013-04-19 23:03:00,68.6,65.2,29.74,SE,131,7.0,7.0,89,0.02,,,0.48,WUHU216DAVISVP2,2013-04-20 03:03:00,
2013-04-19 23:08:00,68.6,65.2,29.74,ENE,65,0.0,7.0,89,0.02,,,0.48,WUHU216DAVISVP2,2013-04-20 03:08:00,
2013-04-19 23:13:00,68.6,65.2,29.72,SE,143,0.0,1.0,89,0.02,,,0.48,WUHU216DAVISVP2,2013-04-20 03:13:00,
2013-04-19 23:18:00,68.6,65.2,29.72,East,95,1.0,1.0,89,0.02,,,0.48,WUHU216DAVISVP2,2013-04-20 03:18:00,
2013-04-19 23:23:00,68.6,65.2,29.72,ENE,73,0.0,1.0,89,0.02,,,0.48,WUHU216DAVISVP2,2013-04-20 03:23:00,
2013-04-19 23:28:00,68.4,65.0,29.73,ENE,61,0.0,1.0,89,0.03,,,0.49,WUHU216DAVISVP2,2013-04-20 03:28:00,
2013-04-19 23:33:00,68.6,65.2,29.73,ESE,104,0.0,2.0,89,0.02,,,0.49,WUHU216DAVISVP2,2013-04-20 03:33:00,
2013-04-19 23:38:00,68.8,65.7,29.73,ENE,78,0.0,6.0,90,0.02,,,0.49,WUHU216DAVISVP2,2013-04-20 03:38:00,
2013-04-19 23:43:00,68.8,65.7,29.75,ENE,78,0.0,6.0,90,0.02,,,0.49,WUHU216DAVISVP2,2013-04-20 03:43:00,
2013-04-19 23:48:00,68.4,65.3,29.75,SE,126,0.0,1.0,90,0.01,,,0.49,WUHU216DAVISVP2,2013-04-20 03:48:00,
2013-04-19 23:53:00,68.4,65.3,29.75,SE,138,0.0,1.0,90,0.01,,,0.49,WUHU216DAVISVP2,2013-04-20 03:53:00,
2013-04-19 23:59:00,68.3,65.2,29.75,SE,138,0.0,1.0,90,0.01,,,0.49,WUHU216DAVISVP2,2013-04-20 03:59:00,